createdAt,value
2018-12-14T00:01:12.604Z,101560.67
2018-12-14T00:03:43.880Z,101556.27
2018-12-14T00:06:16.511Z,101553.23
2018-12-14T00:08:45.786Z,101554.53
2018-12-14T00:11:15.063Z,101553.95
2018-12-14T00:13:44.240Z,101559.32
2018-12-14T00:16:14.726Z,101554.41
2018-12-14T00:18:44.887Z,101560.47
2018-12-14T00:21:14.307Z,101559.84
2018-12-14T00:23:43.632Z,101549.94
2018-12-14T00:26:12.814Z,101548.89
2018-12-14T00:28:41.986Z,101546.30
2018-12-14T00:31:12.618Z,101550.46
2018-12-14T00:33:41.799Z,101546.95
2018-12-14T00:36:12.147Z,101546.14
2018-12-14T00:38:41.578Z,101550.99
2018-12-14T00:41:10.882Z,101542.66
2018-12-14T00:43:41.035Z,101551.41
2018-12-14T00:46:10.571Z,101545.76
2018-12-14T00:48:39.763Z,101545.34
2018-12-14T00:51:08.917Z,101551.08
2018-12-14T00:53:38.319Z,101553.73
2018-12-14T00:57:38.596Z,101551.09
2018-12-14T01:00:09.893Z,101556.30
2018-12-14T01:02:39.093Z,101556.75
2018-12-14T01:05:08.524Z,101551.93
2018-12-14T01:07:38.750Z,101558.53
2018-12-14T01:10:08.047Z,101555.91
2018-12-14T01:12:37.403Z,101546.66
2018-12-14T01:15:06.935Z,101553.29
2018-12-14T01:17:36.239Z,101548.43
2018-12-14T01:20:09.124Z,101555.45
2018-12-14T01:22:38.301Z,101551.94
2018-12-14T01:25:07.727Z,101555.85
2018-12-14T01:27:37.363Z,101562.47
2018-12-14T01:30:07.455Z,101563.33
2018-12-14T01:32:37.206Z,101564.28
2018-12-14T01:35:06.595Z,101560.22
2018-12-14T01:37:35.828Z,101565.83
2018-12-14T01:40:06.936Z,101571.22
2018-12-14T01:42:36.635Z,101576.98
2018-12-14T01:45:06.544Z,101570.41
2018-12-14T01:47:35.663Z,101568.63
2018-12-14T01:50:06.043Z,101573.02
2018-12-14T01:52:36.419Z,101573.86
2018-12-14T01:55:06.031Z,101581.40
2018-12-14T01:57:35.593Z,101583.18
2018-12-14T02:00:05.434Z,101587.51
2018-12-14T02:02:34.726Z,101584.90
2018-12-14T02:05:07.575Z,101585.80
2018-12-14T02:07:36.791Z,101579.63
2018-12-14T02:10:06.267Z,101581.84
2018-12-14T02:12:35.542Z,101577.84
2018-12-14T02:15:05.462Z,101580.13
2018-12-14T02:17:35.129Z,101579.23
2018-12-14T02:20:04.949Z,101576.61
2018-12-14T02:22:35.368Z,101575.31
2018-12-14T02:25:05.672Z,101569.56
2018-12-14T02:27:37.306Z,101571.76
2018-12-14T02:30:17.557Z,101581.02
2018-12-14T02:32:46.838Z,101576.62
2018-12-14T02:35:16.854Z,101569.37
2018-12-14T02:37:46.210Z,101560.73
2018-12-14T02:40:17.364Z,101561.16
2018-12-14T02:42:46.654Z,101558.97
2018-12-14T02:45:15.905Z,101557.66
2018-12-14T02:47:47.623Z,101564.67
2018-12-14T02:50:16.942Z,101557.17
2018-12-14T02:52:46.160Z,101548.42
2018-12-14T02:55:16.084Z,101556.77
2018-12-14T02:57:45.627Z,101550.61
2018-12-14T03:00:15.212Z,101553.70
2018-12-14T03:02:45.751Z,101552.73
2018-12-14T03:05:15.542Z,101551.84
2018-12-14T03:07:44.746Z,101559.76
2018-12-14T03:10:15.007Z,101557.84
2018-12-14T03:12:44.223Z,101561.35
2018-12-14T03:15:13.599Z,101553.02
2018-12-14T03:17:42.775Z,101554.61
2018-12-14T03:20:12.396Z,101557.69
2018-12-14T03:22:42.533Z,101559.88
2018-12-14T03:25:11.720Z,101559.98
2018-12-14T03:27:40.890Z,101563.40
2018-12-14T03:30:10.637Z,101567.42
2018-12-14T03:32:40.027Z,101564.11
2018-12-14T03:35:11.079Z,101559.36
2018-12-14T03:37:40.393Z,101562.00
2018-12-14T03:40:09.761Z,101565.11
2018-12-14T03:42:39.350Z,101564.70
2018-12-14T03:45:08.682Z,101554.05
2018-12-14T03:47:38.804Z,101556.76
2018-12-14T03:50:08.051Z,101548.95
2018-12-14T03:52:37.224Z,101551.22
2018-12-14T03:55:07.087Z,101549.70
2018-12-14T03:57:36.269Z,101544.95
2018-12-14T04:00:09.756Z,101548.91
2018-12-14T04:02:39.033Z,101545.39
2018-12-14T04:05:08.235Z,101547.47
2018-12-14T04:07:37.621Z,101549.45
2018-12-14T04:10:07.742Z,101547.62
2018-12-14T04:12:41.504Z,101555.63
2018-12-14T04:15:08.568Z,101557.01
2018-12-14T04:17:37.749Z,101557.76
2018-12-14T04:20:09.190Z,101561.66
2018-12-14T04:22:39.492Z,101562.57
2018-12-14T04:25:08.648Z,101565.65
2018-12-14T04:29:07.777Z,101566.66
2018-12-14T04:31:37.795Z,101566.92
2018-12-14T04:34:07.468Z,101567.47
2018-12-14T04:36:36.950Z,101559.94
2018-12-14T04:39:08.298Z,101561.56
2018-12-14T04:41:38.044Z,101560.88
2018-12-14T04:44:09.400Z,101573.12
2018-12-14T04:46:38.543Z,101567.47
2018-12-14T04:49:09.081Z,101567.73
2018-12-14T04:51:38.329Z,101566.47
2018-12-14T04:54:08.506Z,101568.22
2018-12-14T04:56:37.683Z,101564.48
2018-12-14T04:59:06.835Z,101563.34
2018-12-14T05:01:36.236Z,101569.14
2018-12-14T05:04:05.391Z,101564.65
2018-12-14T05:06:36.459Z,101567.20
2018-12-14T05:09:06.600Z,101570.88
2018-12-14T05:11:35.794Z,101566.67
2018-12-14T05:14:04.934Z,101574.73
2018-12-14T05:16:34.562Z,101575.70
2018-12-14T05:19:04.268Z,101579.13
2018-12-14T05:21:33.437Z,101572.30
2018-12-14T05:24:03.644Z,101586.09
2018-12-14T05:26:32.857Z,101579.64
2018-12-14T05:29:03.900Z,101581.18
2018-12-14T05:31:33.144Z,101587.06
2018-12-14T05:34:02.358Z,101582.75
2018-12-14T05:36:31.599Z,101578.50
2018-12-14T05:39:00.844Z,101580.53
2018-12-14T05:41:31.390Z,101585.45
2018-12-14T05:44:00.567Z,101582.83
2018-12-14T05:46:32.392Z,101584.47
2018-12-14T05:49:01.720Z,101582.59
2018-12-14T05:51:31.465Z,101580.08
2018-12-14T05:54:01.101Z,101573.11
2018-12-14T05:56:30.420Z,101581.51
2018-12-14T05:58:59.584Z,101575.23
2018-12-14T06:01:28.846Z,101576.80
2018-12-14T06:03:59.703Z,101581.65
2018-12-14T06:06:29.452Z,101578.36
2018-12-14T06:08:58.961Z,101577.91
2018-12-14T06:11:28.280Z,101582.90
2018-12-14T06:13:57.479Z,101583.69
2018-12-14T06:16:27.293Z,101587.13
2018-12-14T06:18:56.978Z,101589.92
2018-12-14T06:21:26.167Z,101594.33
2018-12-14T06:23:55.329Z,101596.09
2018-12-14T06:26:24.603Z,101602.34
2018-12-14T06:28:55.485Z,101595.53
2018-12-14T06:31:25.195Z,101598.61
2018-12-14T06:33:54.379Z,101597.81
2018-12-14T06:36:23.727Z,101607.10
2018-12-14T06:38:52.954Z,101604.90
2018-12-14T06:41:22.550Z,101607.98
2018-12-14T06:43:52.297Z,101608.81
2018-12-14T06:46:21.463Z,101620.75
2018-12-14T06:48:51.538Z,101622.94
2018-12-14T06:51:22.116Z,101619.88
2018-12-14T06:53:51.782Z,101617.20
2018-12-14T06:56:21.416Z,101625.02
2018-12-14T06:58:50.654Z,101629.34
2018-12-14T07:01:19.810Z,101633.76
2018-12-14T07:03:48.989Z,101634.33
2018-12-14T07:06:19.219Z,101637.48
2018-12-14T07:08:48.828Z,101631.20
2018-12-14T07:11:18.009Z,101644.36
2018-12-14T07:13:47.348Z,101632.62
2018-12-14T07:16:16.567Z,101645.84
2018-12-14T07:18:46.211Z,101642.83
2018-12-14T07:21:15.888Z,101657.73
2018-12-14T07:23:45.121Z,101643.69
2018-12-14T07:26:14.305Z,101642.81
2018-12-14T07:28:43.599Z,101651.14
2018-12-14T07:31:14.071Z,101656.87
2018-12-14T07:33:43.563Z,101657.73
2018-12-14T07:36:12.839Z,101661.88
2018-12-14T07:38:47.993Z,101663.30
2018-12-14T07:41:14.295Z,101669.12
2018-12-14T07:43:43.580Z,101674.09
2018-12-14T07:46:13.585Z,101675.06
2018-12-14T07:48:43.137Z,101673.38
2018-12-14T07:51:14.039Z,101679.01
2018-12-14T07:53:43.218Z,101683.44
2018-12-14T07:56:12.414Z,101684.06
2018-12-14T07:58:42.374Z,101691.05
2018-12-14T08:01:11.594Z,101689.99
2018-12-14T08:03:41.414Z,101688.41
2018-12-14T08:06:10.635Z,101694.95
2018-12-14T08:08:39.790Z,101694.24
2018-12-14T08:11:09.667Z,101704.47
2018-12-14T08:13:38.846Z,101695.36
2018-12-14T08:16:09.180Z,101704.16
2018-12-14T08:18:38.475Z,101701.44
2018-12-14T08:21:07.632Z,101707.28
2018-12-14T08:23:37.387Z,101711.28
2018-12-14T08:26:06.890Z,101715.45
2018-12-14T08:28:36.600Z,101716.28
2018-12-14T08:31:05.905Z,101712.30
2018-12-14T08:33:37.071Z,101719.16
2018-12-14T08:36:06.869Z,101723.09
2018-12-14T08:38:36.508Z,101717.67
2018-12-14T08:41:05.775Z,101717.59
2018-12-14T08:43:41.200Z,101722.70
2018-12-14T08:46:06.852Z,101731.36
2018-12-14T08:48:36.148Z,101730.14
2018-12-14T08:51:06.713Z,101735.45
2018-12-14T08:53:36.792Z,101715.09
2018-12-14T08:56:05.996Z,101740.28
2018-12-14T08:58:35.151Z,101742.88
2018-12-14T09:01:04.449Z,101743.59
2018-12-14T09:03:34.541Z,101742.52
2018-12-14T09:06:03.889Z,101748.86
2018-12-14T09:08:34.155Z,101743.56
2018-12-14T09:11:03.383Z,101756.27
2018-12-14T09:13:32.600Z,101756.48
2018-12-14T09:16:03.352Z,101762.37
2018-12-14T09:18:32.491Z,101762.88
2018-12-14T09:21:01.741Z,101767.61
2018-12-14T09:23:31.033Z,101762.63
2018-12-14T09:26:00.480Z,101763.05
2018-12-14T09:28:30.627Z,101772.99
2018-12-14T09:31:00.827Z,101768.87
2018-12-14T09:33:29.984Z,101777.84
2018-12-14T09:35:59.356Z,101779.77
2018-12-14T09:38:28.739Z,101781.20
2018-12-14T09:40:59.584Z,101779.91
2018-12-14T09:43:28.916Z,101781.34
2018-12-14T09:45:58.481Z,101782.73
2018-12-14T09:48:27.806Z,101789.00
2018-12-14T09:50:57.012Z,101783.98
2018-12-14T09:53:27.185Z,101782.66
2018-12-14T09:55:56.825Z,101783.72
2018-12-14T09:58:25.974Z,101775.44
2018-12-14T10:00:55.217Z,101779.07
2018-12-14T10:03:25.791Z,101778.94
2018-12-14T10:05:55.251Z,101778.64
2018-12-14T10:08:25.249Z,101778.95
2018-12-14T10:10:54.911Z,101773.62
2018-12-14T10:13:24.212Z,101778.85
2018-12-14T10:15:54.612Z,101778.41
2018-12-14T10:18:24.340Z,101783.13
2018-12-14T10:20:53.520Z,101779.33
2018-12-14T10:23:22.721Z,101779.09
2018-12-14T10:25:51.964Z,101770.01
2018-12-14T10:28:21.895Z,101773.45
2018-12-14T10:30:54.679Z,101774.81
2018-12-14T10:33:23.838Z,101767.96
2018-12-14T10:35:53.024Z,101763.31
2018-12-14T10:38:22.910Z,101760.69
2018-12-14T10:40:52.359Z,101752.67
2018-12-14T10:43:21.545Z,101754.42
2018-12-14T10:45:52.700Z,101752.59
2018-12-14T10:48:22.154Z,101755.28
2018-12-14T10:50:53.307Z,101745.91
2018-12-14T10:53:23.417Z,101748.22
2018-12-14T10:55:52.591Z,101743.92
2018-12-14T10:58:22.172Z,101747.50
2018-12-14T11:00:56.592Z,101745.98
2018-12-14T11:03:26.779Z,101742.00
2018-12-14T11:05:55.948Z,101742.94
2018-12-14T11:08:25.210Z,101741.40
2018-12-14T11:10:54.551Z,101747.05
2018-12-14T11:13:23.719Z,101728.55
2018-12-14T11:15:55.221Z,101739.88
2018-12-14T11:18:24.464Z,101729.20
2018-12-14T11:20:53.763Z,101731.90
2018-12-14T11:23:23.578Z,101729.38
2018-12-14T11:25:52.777Z,101738.79
2018-12-14T11:28:22.981Z,101730.64
2018-12-14T11:30:52.163Z,101734.59
2018-12-14T11:33:21.408Z,101738.78
2018-12-14T11:35:50.655Z,101726.11
2018-12-14T11:38:19.858Z,101734.38
2018-12-14T11:40:50.985Z,101733.79
2018-12-14T11:43:20.721Z,101737.03
2018-12-14T11:45:49.935Z,101736.13
2018-12-14T11:48:19.101Z,101738.03
2018-12-14T11:50:48.403Z,101732.55
2018-12-14T11:56:20.321Z,101725.48
2018-12-14T11:58:50.383Z,101732.05
2018-12-14T12:01:19.580Z,101727.14
2018-12-14T12:03:50.721Z,101720.67
2018-12-14T12:06:19.884Z,101722.98
2018-12-14T12:08:49.185Z,101722.09
2018-12-14T12:11:18.641Z,101724.09
2018-12-14T12:13:47.980Z,101725.93
2018-12-14T12:16:19.128Z,101723.93
2018-12-14T12:18:48.395Z,101721.53
2018-12-14T12:21:17.622Z,101721.18
2018-12-14T12:23:46.879Z,101727.48
2018-12-14T12:26:16.035Z,101723.59
2018-12-14T12:28:46.203Z,101718.64
2018-12-14T12:31:15.553Z,101724.13
2018-12-14T12:33:44.790Z,101719.91
2018-12-14T12:36:14.540Z,101727.08
2018-12-14T12:38:45.014Z,101720.36
2018-12-14T12:41:16.196Z,101723.20
2018-12-14T12:43:45.353Z,101724.59
2018-12-14T12:46:15.437Z,101719.44
2018-12-14T12:48:44.927Z,101725.98
2018-12-14T12:51:14.532Z,101723.41
2018-12-14T12:53:44.143Z,101724.74
2018-12-14T12:56:13.555Z,101724.91
2018-12-14T12:58:42.742Z,101723.43
2018-12-14T13:01:13.933Z,101724.61
2018-12-14T13:03:43.933Z,101725.97
2018-12-14T13:06:13.251Z,101721.56
2018-12-14T13:08:42.567Z,101727.95
2018-12-14T13:11:11.751Z,101730.28
2018-12-14T13:13:40.947Z,101730.91
2018-12-14T13:16:11.120Z,101732.59
2018-12-14T13:18:40.276Z,101727.94
2018-12-14T13:21:09.543Z,101733.09
2018-12-14T13:23:38.728Z,101727.23
2018-12-14T13:26:07.956Z,101722.80
2018-12-14T13:28:38.811Z,101734.22
2018-12-14T13:31:08.231Z,101735.97
2018-12-14T13:33:38.147Z,101732.57
2018-12-14T13:36:08.440Z,101739.96
2018-12-14T13:38:39.011Z,101744.98
2018-12-14T13:47:55.512Z,101757.31
2018-12-14T13:50:26.540Z,101759.07
2018-12-14T13:52:55.682Z,101769.53
2018-12-14T13:55:26.230Z,101769.19
2018-12-14T13:57:55.428Z,101765.09
2018-12-14T14:00:25.429Z,101765.77
2018-12-14T14:02:55.489Z,101775.67
2018-12-14T14:05:24.645Z,101775.86
2018-12-14T14:07:53.852Z,101781.76
2018-12-14T14:10:23.089Z,101784.02
2018-12-14T14:12:54.234Z,101784.42
2018-12-14T14:15:24.174Z,101788.47
2018-12-14T14:17:53.428Z,101788.98
2018-12-14T14:20:22.592Z,101794.29
2018-12-14T14:22:51.807Z,101793.11
2018-12-14T14:25:21.647Z,101797.52
2018-12-14T14:27:51.273Z,101801.20
2018-12-14T14:30:21.499Z,101803.34
2018-12-14T14:32:50.947Z,101804.80
2018-12-14T14:35:20.363Z,101803.69
2018-12-14T14:37:57.485Z,101804.85
2018-12-14T14:40:24.398Z,101803.51
2018-12-14T14:42:53.754Z,101807.57
2018-12-14T14:45:22.991Z,101812.03
2018-12-14T14:47:55.706Z,101806.42
2018-12-14T14:50:25.699Z,101807.28
2018-12-14T14:52:57.412Z,101810.95
2018-12-14T14:55:26.612Z,101810.52
2018-12-14T14:57:58.439Z,101815.69
2018-12-14T15:00:29.695Z,101819.30
2018-12-14T15:03:01.031Z,101817.06
2018-12-14T15:05:30.570Z,101816.52
2018-12-14T15:08:00.740Z,101824.16
2018-12-14T15:10:30.049Z,101818.45
2018-12-14T15:12:59.372Z,101823.34
2018-12-14T15:15:29.345Z,101832.95
2018-12-14T15:17:58.619Z,101833.34
2018-12-14T15:20:30.191Z,101840.98
2018-12-14T15:23:01.219Z,101836.75
2018-12-14T15:25:30.543Z,101840.80
2018-12-14T15:27:59.775Z,101840.91
2018-12-14T15:30:29.261Z,101847.52
2018-12-14T15:32:59.602Z,101846.06
2018-12-14T15:35:28.802Z,101857.28
2018-12-14T15:37:59.397Z,101854.54
2018-12-14T15:40:28.600Z,101858.22
2018-12-14T15:42:59.006Z,101857.24
2018-12-14T15:45:28.896Z,101862.80
2018-12-14T15:47:58.325Z,101864.02
2018-12-14T15:50:27.574Z,101868.09
2018-12-14T15:52:56.856Z,101865.61
2018-12-14T15:55:26.655Z,101866.64
2018-12-14T15:57:56.308Z,101861.04
2018-12-14T16:00:26.371Z,101867.77
2018-12-14T16:02:55.605Z,101860.70
2018-12-14T16:05:27.739Z,101857.66
2018-12-14T16:07:57.318Z,101868.16
2018-12-14T16:10:26.672Z,101868.55
2018-12-14T16:12:55.872Z,101863.86
2018-12-14T16:15:26.587Z,101873.95
2018-12-14T16:17:56.922Z,101871.86
2018-12-14T16:20:26.470Z,101870.91
2018-12-14T16:22:56.852Z,101872.37
2018-12-14T16:25:26.080Z,101869.61
2018-12-14T16:27:56.169Z,101869.73
2018-12-14T16:30:27.044Z,101869.30
2018-12-14T16:32:56.267Z,101860.57
2018-12-14T16:35:25.533Z,101874.97
2018-12-14T16:37:55.052Z,101872.13
2018-12-14T16:40:26.119Z,101873.84
2018-12-14T16:42:57.009Z,101872.52
2018-12-14T16:45:26.616Z,101879.81
2018-12-14T16:47:57.116Z,101878.69
2018-12-14T16:50:28.146Z,101875.17
2018-12-14T16:52:58.324Z,101881.17
2018-12-14T16:55:28.093Z,101882.44
2018-12-14T16:57:57.288Z,101877.75
2018-12-14T17:00:26.984Z,101884.28
2018-12-14T17:02:57.316Z,101893.45
2018-12-14T17:05:26.717Z,101892.26
2018-12-14T17:07:56.075Z,101898.99
2018-12-14T17:10:25.262Z,101903.38
2018-12-14T17:12:56.201Z,101908.13
2018-12-14T17:15:25.404Z,101907.67
2018-12-14T17:17:54.703Z,101909.86
2018-12-14T17:20:23.924Z,101907.67
2018-12-14T17:22:53.207Z,101909.55
2018-12-14T17:25:23.246Z,101916.95
2018-12-14T17:27:52.438Z,101916.05
2018-12-14T17:30:21.675Z,101914.64
2018-12-14T17:32:50.924Z,101915.56
2018-12-14T17:35:20.141Z,101918.16
2018-12-14T17:37:53.422Z,101926.28
2018-12-14T17:40:22.726Z,101927.26
2018-12-14T17:42:54.045Z,101926.44
2018-12-14T17:45:23.237Z,101926.14
2018-12-14T17:47:52.963Z,101928.68
2018-12-14T17:50:22.588Z,101932.59
2018-12-14T17:52:51.763Z,101940.98
2018-12-14T17:55:21.207Z,101945.05
2018-12-14T17:57:51.061Z,101950.34
2018-12-14T18:00:22.241Z,101955.27
2018-12-14T18:02:51.908Z,101947.03
2018-12-14T18:05:21.089Z,101953.81
2018-12-14T18:07:50.448Z,101945.17
2018-12-14T18:10:19.686Z,101944.42
2018-12-14T18:12:49.466Z,101947.51
2018-12-14T18:15:19.353Z,101952.75
2018-12-14T18:17:48.660Z,101962.39
2018-12-14T18:20:17.908Z,101960.08
2018-12-14T18:22:47.422Z,101959.92
2018-12-14T18:25:19.742Z,101964.86
2018-12-14T18:27:49.418Z,101959.77
2018-12-14T18:30:19.203Z,101961.26
2018-12-14T18:32:48.515Z,101974.69
2018-12-14T18:35:17.816Z,101973.16
2018-12-14T18:37:47.698Z,101969.42
2018-12-14T18:40:17.407Z,101970.75
2018-12-14T18:42:46.713Z,101976.66
2018-12-14T18:45:16.001Z,101976.09
2018-12-14T18:47:46.325Z,101983.22
2018-12-14T18:50:16.419Z,101984.42
2018-12-14T18:52:46.040Z,101990.53
2018-12-14T18:55:15.235Z,101991.36
2018-12-14T18:57:44.482Z,101986.84
2018-12-14T19:00:14.219Z,101992.42
2018-12-14T19:02:44.714Z,101994.27
2018-12-14T19:05:14.447Z,101996.41
2018-12-14T19:07:43.627Z,101999.56
2018-12-14T19:10:14.814Z,102000.58
2018-12-14T19:12:45.196Z,102006.73
2018-12-14T19:15:14.991Z,102007.68
2018-12-14T19:17:44.786Z,102009.20
2018-12-14T19:20:13.991Z,102021.30
2018-12-14T19:22:44.143Z,102012.89
2018-12-14T19:25:13.343Z,102022.09
2018-12-14T19:27:44.026Z,102020.28
2018-12-14T19:30:13.774Z,102021.18
2018-12-14T19:32:43.530Z,102028.41
2018-12-14T19:35:13.780Z,102025.21
2018-12-14T19:37:43.523Z,102028.23
2018-12-14T19:40:13.262Z,102028.70
2018-12-14T19:42:42.439Z,102030.78
2018-12-14T19:45:12.905Z,102026.84
2018-12-14T19:47:42.112Z,102030.45
2018-12-14T19:50:11.416Z,102031.98
2018-12-14T19:52:41.694Z,102023.33
2018-12-14T19:55:11.415Z,102027.16
2018-12-14T19:57:54.411Z,102027.67
2018-12-14T20:00:23.915Z,102026.30
2018-12-14T20:02:53.598Z,102028.45
2018-12-14T20:05:23.909Z,102020.16
2018-12-14T20:07:53.646Z,102020.35
2018-12-14T20:10:23.559Z,102024.79
2018-12-14T20:12:53.052Z,102021.81
2018-12-14T20:15:23.300Z,102013.94
2018-12-14T20:17:55.135Z,102030.59
2018-12-14T20:20:24.671Z,102030.56
2018-12-14T20:22:54.324Z,102027.93
2018-12-14T20:25:23.882Z,102025.44
2018-12-14T20:27:54.057Z,102024.84
2018-12-14T20:30:25.280Z,102023.52
2018-12-14T20:32:55.741Z,102023.72
2018-12-14T20:35:25.341Z,102031.88
2018-12-14T20:37:57.949Z,102018.63
2018-12-14T20:40:27.609Z,102014.08
2018-12-14T20:42:57.161Z,102016.20
2018-12-14T20:45:28.066Z,102012.03
2018-12-14T20:47:57.765Z,102003.05
2018-12-14T20:50:27.188Z,102006.10
2018-12-14T20:52:56.491Z,102006.05
2018-12-14T20:55:26.025Z,102015.94
2018-12-14T20:57:56.667Z,102016.44
2018-12-14T21:00:27.600Z,102021.78
2018-12-14T21:02:56.876Z,102012.73
2018-12-14T21:05:27.430Z,102019.77
2018-12-14T21:07:56.614Z,102009.39
2018-12-14T21:10:27.232Z,102015.46
2018-12-14T21:12:57.505Z,102016.37
2018-12-14T21:15:26.740Z,102010.78
2018-12-14T21:17:55.934Z,102011.09
2018-12-14T21:20:25.196Z,102006.63
2018-12-14T21:22:56.700Z,102006.80
2018-12-14T21:25:26.051Z,102007.97
2018-12-14T21:27:55.259Z,102008.22
2018-12-14T21:30:26.042Z,101998.00
2018-12-14T21:32:56.011Z,101996.06
2018-12-14T21:35:25.730Z,101993.56
2018-12-14T21:37:55.013Z,101997.41
2018-12-14T21:40:24.213Z,102000.11
2018-12-14T21:42:53.450Z,102001.64
2018-12-14T21:45:24.018Z,101998.56
2018-12-14T21:47:53.654Z,101998.17
2018-12-14T21:50:23.272Z,102002.55
2018-12-14T21:52:52.591Z,102001.77
2018-12-14T21:55:21.986Z,101996.84
2018-12-14T21:57:51.912Z,102000.53
2018-12-14T22:00:21.743Z,101992.97
2018-12-14T22:02:51.079Z,101995.09
2018-12-14T22:05:20.266Z,101991.47
2018-12-14T22:07:49.524Z,101985.41
2018-12-14T22:10:20.724Z,101990.02
2018-12-14T22:12:50.699Z,101984.99
2018-12-14T22:15:19.875Z,101989.00
2018-12-14T22:17:49.090Z,101986.61
2018-12-14T22:20:19.392Z,101983.67
2018-12-14T22:22:48.607Z,101975.03
2018-12-14T22:25:18.716Z,101985.77
2018-12-14T22:27:47.955Z,101985.41
2018-12-14T22:30:17.129Z,101983.99
2018-12-14T22:32:47.352Z,101982.63
2018-12-14T22:35:16.539Z,101990.50
2018-12-14T22:37:46.203Z,101983.94
2018-12-14T22:40:15.597Z,101986.91
2018-12-14T22:44:14.107Z,101984.03
2018-12-14T22:46:45.778Z,101990.27
2018-12-14T22:49:15.508Z,101986.64
2018-12-14T22:51:44.802Z,101987.82
2018-12-14T22:54:14.015Z,101984.73
2018-12-14T22:56:43.767Z,101988.61
2018-12-14T22:59:14.580Z,101996.35
2018-12-14T23:01:43.866Z,101994.78
2018-12-14T23:04:13.403Z,101988.12
2018-12-14T23:06:43.814Z,101997.95
2018-12-14T23:09:13.898Z,101991.48
2018-12-14T23:11:43.084Z,101994.17
2018-12-14T23:14:12.592Z,101996.26
2018-12-14T23:16:41.792Z,102006.63
2018-12-14T23:19:11.556Z,102008.34
2018-12-14T23:21:43.385Z,102014.42
2018-12-14T23:24:12.648Z,102004.55
2018-12-14T23:26:42.530Z,102012.80
2018-12-14T23:29:14.053Z,102019.28
2018-12-14T23:31:43.761Z,102015.40
2018-12-14T23:34:14.829Z,102014.33
2018-12-14T23:36:44.336Z,102019.13
2018-12-14T23:39:15.582Z,102015.89
2018-12-14T23:41:49.451Z,102013.59
2018-12-14T23:44:29.575Z,102009.80
2018-12-14T23:47:02.755Z,102015.22
2018-12-14T23:49:32.056Z,102015.00
2018-12-14T23:52:02.392Z,102021.20
2018-12-14T23:54:32.403Z,102019.50
2018-12-14T23:57:01.743Z,102023.33
2018-12-14T23:59:31.830Z,102019.86
